createdAt,value
2023-04-10T00:00:09.017Z,98440.00
2023-04-10T00:00:19.032Z,98439.00
2023-04-10T00:00:29.163Z,98439.00
2023-04-10T00:00:39.168Z,98440.00
2023-04-10T00:00:49.171Z,98439.00
2023-04-10T00:00:59.172Z,98440.00
2023-04-10T00:01:09.434Z,98440.00
2023-04-10T00:01:19.427Z,98440.00
2023-04-10T00:01:29.440Z,98440.00
2023-04-10T00:01:39.493Z,98439.00
2023-04-10T00:01:49.628Z,98437.00
2023-04-10T00:01:59.598Z,98440.00
2023-04-10T00:02:09.752Z,98439.00
2023-04-10T00:02:19.767Z,98440.00
2023-04-10T00:02:30.038Z,98440.00
2023-04-10T00:02:39.925Z,98437.00
2023-04-10T00:02:50.161Z,98440.00
2023-04-10T00:03:00.501Z,98439.00
2023-04-10T00:03:10.292Z,98440.00
2023-04-10T00:03:20.317Z,98440.00
2023-04-10T00:03:30.329Z,98440.00
2023-04-10T00:03:40.359Z,98440.00
2023-04-10T00:03:50.507Z,98442.00
2023-04-10T00:04:01.134Z,98442.00
2023-04-10T00:04:10.879Z,98442.00
2023-04-10T00:04:20.833Z,98439.00
2023-04-10T00:04:31.185Z,98442.00
2023-04-10T00:04:41.144Z,98440.00
2023-04-10T00:04:51.335Z,98440.00
2023-04-10T00:05:01.481Z,98442.00
2023-04-10T00:05:11.690Z,98442.00
2023-04-10T00:05:21.538Z,98442.00
2023-04-10T00:05:31.935Z,98442.00
2023-04-10T00:05:41.927Z,98442.00
2023-04-10T00:05:51.934Z,98440.00
2023-04-10T00:06:01.949Z,98440.00
2023-04-10T00:06:11.947Z,98442.00
2023-04-10T00:06:21.951Z,98442.00
2023-04-10T00:06:31.961Z,98440.00
2023-04-10T00:06:41.967Z,98442.00
2023-04-10T00:06:52.103Z,98440.00
2023-04-10T00:07:02.089Z,98442.00
2023-04-10T00:07:12.364Z,98442.00
2023-04-10T00:07:22.380Z,98440.00
2023-04-10T00:07:32.394Z,98440.00
2023-04-10T00:07:42.390Z,98440.00
2023-04-10T00:07:52.415Z,98442.00
2023-04-10T00:08:02.424Z,98440.00
2023-04-10T00:08:12.437Z,98442.00
2023-04-10T00:08:22.449Z,98440.00
2023-04-10T00:08:32.461Z,98442.00
2023-04-10T00:08:42.457Z,98439.00
2023-04-10T00:08:52.463Z,98440.00
2023-04-10T00:09:02.484Z,98440.00
2023-04-10T00:09:12.492Z,98440.00
2023-04-10T00:09:22.487Z,98440.00
2023-04-10T00:09:32.537Z,98440.00
2023-04-10T00:09:42.546Z,98440.00
2023-04-10T00:09:52.560Z,98440.00
2023-04-10T00:10:02.617Z,98440.00
2023-04-10T00:10:12.625Z,98437.00
2023-04-10T00:10:22.640Z,98437.00
2023-04-10T00:10:32.627Z,98439.00
2023-04-10T00:10:42.635Z,98435.00
2023-04-10T00:10:52.758Z,98439.00
2023-04-10T00:11:02.755Z,98437.00
2023-04-10T00:11:13.037Z,98439.00
2023-04-10T00:11:23.055Z,98439.00
2023-04-10T00:11:33.053Z,98435.00
2023-04-10T00:11:43.068Z,98439.00
2023-04-10T00:11:53.078Z,98437.00
2023-04-10T00:12:03.085Z,98439.00
2023-04-10T00:12:13.091Z,98437.00
2023-04-10T00:12:23.104Z,98437.00
2023-04-10T00:12:33.113Z,98439.00
2023-04-10T00:12:43.128Z,98437.00
2023-04-10T00:12:53.133Z,98437.00
2023-04-10T00:13:03.157Z,98437.00
2023-04-10T00:13:13.160Z,98435.00
2023-04-10T00:13:23.165Z,98437.00
2023-04-10T00:13:33.174Z,98437.00
2023-04-10T00:13:43.188Z,98437.00
2023-04-10T00:13:53.386Z,98437.00
2023-04-10T00:14:03.223Z,98439.00
2023-04-10T00:14:13.226Z,98437.00
2023-04-10T00:14:23.242Z,98437.00
2023-04-10T00:14:33.352Z,98437.00
2023-04-10T00:14:43.363Z,98439.00
2023-04-10T00:14:53.476Z,98437.00
2023-04-10T00:15:03.484Z,98437.00
2023-04-10T00:15:13.612Z,98439.00
2023-04-10T00:15:23.631Z,98437.00
2023-04-10T00:15:33.639Z,98437.00
2023-04-10T00:15:43.638Z,98437.00
2023-04-10T00:15:53.647Z,98439.00
2023-04-10T00:16:03.678Z,98437.00
2023-04-10T00:16:13.784Z,98439.00
2023-04-10T00:16:23.823Z,98433.00
2023-04-10T00:16:33.907Z,98435.00
2023-04-10T00:16:43.923Z,98433.00
2023-04-10T00:16:54.332Z,98433.00
2023-04-10T00:17:04.314Z,98433.00
2023-04-10T00:17:14.320Z,98433.00
2023-04-10T00:17:24.337Z,98435.00
2023-04-10T00:17:34.378Z,98431.00
2023-04-10T00:17:44.424Z,98433.00
2023-04-10T00:17:54.483Z,98437.00
2023-04-10T00:18:04.523Z,98433.00
2023-04-10T00:18:14.570Z,98435.00
2023-04-10T00:18:24.575Z,98433.00
2023-04-10T00:18:34.979Z,98435.00
2023-04-10T00:18:44.998Z,98433.00
2023-04-10T00:18:54.991Z,98435.00
2023-04-10T00:19:05.003Z,98435.00
2023-04-10T00:19:15.009Z,98437.00
2023-04-10T00:19:25.018Z,98437.00
2023-04-10T00:19:35.033Z,98435.00
2023-04-10T00:19:45.036Z,98437.00
2023-04-10T00:19:55.052Z,98435.00
2023-04-10T00:20:05.075Z,98433.00
2023-04-10T00:20:15.065Z,98437.00
2023-04-10T00:20:25.086Z,98435.00
2023-04-10T00:20:35.101Z,98437.00
2023-04-10T00:20:45.119Z,98437.00
2023-04-10T00:20:55.117Z,98439.00
2023-04-10T00:21:05.125Z,98439.00
2023-04-10T00:21:15.250Z,98439.00
2023-04-10T00:21:25.505Z,98440.00
2023-04-10T00:21:35.506Z,98439.00
2023-04-10T00:21:45.516Z,98439.00
2023-04-10T00:21:55.537Z,98440.00
2023-04-10T00:22:05.548Z,98440.00
2023-04-10T00:22:15.573Z,98439.00
2023-04-10T00:22:25.563Z,98439.00
2023-04-10T00:22:35.579Z,98439.00
2023-04-10T00:22:45.576Z,98439.00
2023-04-10T00:22:55.600Z,98439.00
2023-04-10T00:23:05.605Z,98439.00
2023-04-10T00:23:15.611Z,98439.00
2023-04-10T00:23:25.617Z,98439.00
2023-04-10T00:23:35.640Z,98440.00
2023-04-10T00:23:45.646Z,98439.00
2023-04-10T00:23:55.785Z,98439.00
2023-04-10T00:24:05.729Z,98439.00
2023-04-10T00:24:16.129Z,98440.00
2023-04-10T00:24:26.132Z,98439.00
2023-04-10T00:24:36.250Z,98439.00
2023-04-10T00:24:46.514Z,98437.00
2023-04-10T00:24:56.648Z,98439.00
2023-04-10T00:25:06.657Z,98439.00
2023-04-10T00:25:16.940Z,98439.00
2023-04-10T00:25:26.931Z,98439.00
2023-04-10T00:25:36.962Z,98439.00
2023-04-10T00:25:46.953Z,98439.00
2023-04-10T00:25:56.956Z,98439.00
2023-04-10T00:26:06.961Z,98437.00
2023-04-10T00:26:16.974Z,98437.00
2023-04-10T00:26:26.982Z,98437.00
2023-04-10T00:26:36.976Z,98437.00
2023-04-10T00:26:46.973Z,98437.00
2023-04-10T00:26:57.440Z,98435.00
2023-04-10T00:27:07.455Z,98435.00
2023-04-10T00:27:17.458Z,98437.00
2023-04-10T00:27:27.729Z,98437.00
2023-04-10T00:27:37.726Z,98435.00
2023-04-10T00:27:47.726Z,98437.00
2023-04-10T00:27:58.119Z,98437.00
2023-04-10T00:28:08.137Z,98437.00
2023-04-10T00:28:18.143Z,98435.00
2023-04-10T00:28:28.162Z,98433.00
2023-04-10T00:28:38.190Z,98433.00
2023-04-10T00:28:48.200Z,98435.00
2023-04-10T00:28:58.196Z,98433.00
2023-04-10T00:29:08.279Z,98433.00
2023-04-10T00:29:18.281Z,98435.00
2023-04-10T00:29:28.410Z,98435.00
2023-04-10T00:29:38.741Z,98435.00
2023-04-10T00:29:48.749Z,98437.00
2023-04-10T00:29:58.742Z,98437.00
2023-04-10T00:30:08.762Z,98433.00
2023-04-10T00:30:18.776Z,98439.00
2023-04-10T00:30:28.901Z,98435.00
2023-04-10T00:30:38.902Z,98435.00
2023-04-10T00:30:48.908Z,98435.00
2023-04-10T00:30:58.969Z,98433.00
2023-04-10T00:31:08.963Z,98437.00
2023-04-10T00:31:19.222Z,98435.00
2023-04-10T00:31:29.243Z,98435.00
2023-04-10T00:31:39.295Z,98431.00
2023-04-10T00:31:49.382Z,98433.00
2023-04-10T00:31:59.491Z,98431.00
2023-04-10T00:32:09.471Z,98433.00
2023-04-10T00:32:19.733Z,98429.00
2023-04-10T00:32:29.555Z,98431.00
2023-04-10T00:32:39.598Z,98431.00
2023-04-10T00:32:49.615Z,98431.00
2023-04-10T00:32:59.987Z,98433.00
2023-04-10T00:33:10.046Z,98431.00
2023-04-10T00:33:20.070Z,98431.00
2023-04-10T00:33:30.329Z,98425.00
2023-04-10T00:33:40.331Z,98425.00
2023-04-10T00:33:50.487Z,98425.00
2023-04-10T00:34:00.739Z,98427.00
2023-04-10T00:34:10.744Z,98425.00
2023-04-10T00:34:20.748Z,98425.00
2023-04-10T00:34:30.751Z,98425.00
2023-04-10T00:34:40.762Z,98427.00
2023-04-10T00:34:50.878Z,98425.00
2023-04-10T00:35:00.886Z,98425.00
2023-04-10T00:35:10.894Z,98423.00
2023-04-10T00:35:20.909Z,98425.00
2023-04-10T00:35:30.922Z,98423.00
2023-04-10T00:35:41.192Z,98427.00
2023-04-10T00:35:51.265Z,98423.00
2023-04-10T00:36:01.266Z,98423.00
2023-04-10T00:36:11.278Z,98423.00
2023-04-10T00:36:21.356Z,98425.00
2023-04-10T00:36:31.351Z,98427.00
2023-04-10T00:36:41.353Z,98425.00
2023-04-10T00:36:51.490Z,98425.00
2023-04-10T00:37:01.489Z,98423.00
2023-04-10T00:37:11.611Z,98423.00
2023-04-10T00:37:21.762Z,98425.00
2023-04-10T00:37:31.765Z,98423.00
2023-04-10T00:37:41.800Z,98423.00
2023-04-10T00:37:51.822Z,98425.00
2023-04-10T00:38:01.830Z,98423.00
2023-04-10T00:38:11.830Z,98425.00
2023-04-10T00:38:21.905Z,98425.00
2023-04-10T00:38:31.917Z,98423.00
2023-04-10T00:38:41.920Z,98423.00
2023-04-10T00:38:52.035Z,98425.00
2023-04-10T00:39:02.313Z,98425.00
2023-04-10T00:39:12.327Z,98423.00
2023-04-10T00:39:22.328Z,98425.00
2023-04-10T00:39:32.704Z,98425.00
2023-04-10T00:39:42.714Z,98425.00
2023-04-10T00:39:52.729Z,98425.00
2023-04-10T00:40:02.737Z,98423.00
2023-04-10T00:40:12.740Z,98423.00
2023-04-10T00:40:22.771Z,98425.00
2023-04-10T00:40:32.794Z,98425.00
2023-04-10T00:40:42.798Z,98423.00
2023-04-10T00:40:52.806Z,98423.00
2023-04-10T00:41:02.812Z,98425.00
2023-04-10T00:41:13.180Z,98423.00
2023-04-10T00:41:23.188Z,98425.00
2023-04-10T00:41:33.190Z,98421.00
2023-04-10T00:41:43.199Z,98423.00
2023-04-10T00:41:53.212Z,98423.00
2023-04-10T00:42:03.216Z,98423.00
2023-04-10T00:42:13.230Z,98421.00
2023-04-10T00:42:23.246Z,98421.00
2023-04-10T00:42:33.252Z,98423.00
2023-04-10T00:42:43.267Z,98421.00
2023-04-10T00:42:53.257Z,98423.00
2023-04-10T00:43:03.268Z,98423.00
2023-04-10T00:43:13.380Z,98423.00
2023-04-10T00:43:23.393Z,98423.00
2023-04-10T00:43:33.420Z,98423.00
2023-04-10T00:43:43.422Z,98423.00
2023-04-10T00:43:53.603Z,98423.00
2023-04-10T00:44:03.788Z,98425.00
2023-04-10T00:44:13.786Z,98423.00
2023-04-10T00:44:23.797Z,98423.00
2023-04-10T00:44:33.788Z,98421.00
2023-04-10T00:44:43.789Z,98423.00
2023-04-10T00:44:53.918Z,98423.00
2023-04-10T00:45:03.932Z,98425.00
2023-04-10T00:45:13.952Z,98425.00
2023-04-10T00:45:23.983Z,98427.00
2023-04-10T00:45:34.022Z,98425.00
2023-04-10T00:45:44.364Z,98425.00
2023-04-10T00:45:54.398Z,98425.00
2023-04-10T00:46:04.457Z,98427.00
2023-04-10T00:46:14.500Z,98427.00
2023-04-10T00:46:24.573Z,98421.00
2023-04-10T00:46:34.641Z,98423.00
2023-04-10T00:46:44.655Z,98423.00
2023-04-10T00:46:54.657Z,98423.00
2023-04-10T00:47:04.658Z,98425.00
2023-04-10T00:47:14.805Z,98425.00
2023-04-10T00:47:25.091Z,98423.00
2023-04-10T00:47:35.157Z,98423.00
2023-04-10T00:47:45.197Z,98425.00
2023-04-10T00:47:55.248Z,98425.00
2023-04-10T00:48:05.286Z,98427.00
2023-04-10T00:48:15.290Z,98425.00
2023-04-10T00:48:25.290Z,98425.00
2023-04-10T00:48:35.341Z,98423.00
2023-04-10T00:48:45.352Z,98425.00
2023-04-10T00:48:55.365Z,98425.00
2023-04-10T00:49:05.376Z,98425.00
2023-04-10T00:49:15.379Z,98427.00
2023-04-10T00:49:25.389Z,98423.00
2023-04-10T00:49:35.419Z,98423.00
2023-04-10T00:49:45.447Z,98425.00
2023-04-10T00:49:55.449Z,98423.00
2023-04-10T00:50:05.487Z,98423.00
2023-04-10T00:50:15.492Z,98423.00
2023-04-10T00:50:25.499Z,98425.00
2023-04-10T00:50:35.616Z,98423.00
2023-04-10T00:50:45.630Z,98425.00
2023-04-10T00:50:55.763Z,98423.00
2023-04-10T00:51:05.763Z,98423.00
2023-04-10T00:51:15.776Z,98421.00
2023-04-10T00:51:25.908Z,98421.00
2023-04-10T00:51:36.053Z,98421.00
2023-04-10T00:51:46.054Z,98423.00
2023-04-10T00:51:58.358Z,98421.00
2023-04-10T00:52:06.422Z,98423.00
2023-04-10T00:52:16.426Z,98423.00
2023-04-10T00:52:26.691Z,98423.00
2023-04-10T00:52:36.697Z,98421.00
2023-04-10T00:52:46.700Z,98423.00
2023-04-10T00:52:57.090Z,98421.00
2023-04-10T00:53:07.116Z,98423.00
2023-04-10T00:53:17.117Z,98423.00
2023-04-10T00:53:27.125Z,98423.00
2023-04-10T00:53:37.145Z,98423.00
2023-04-10T00:53:47.146Z,98425.00
2023-04-10T00:53:57.396Z,98423.00
2023-04-10T00:54:07.234Z,98421.00
2023-04-10T00:54:17.244Z,98423.00
2023-04-10T00:54:27.239Z,98421.00
2023-04-10T00:54:37.253Z,98423.00
2023-04-10T00:54:47.274Z,98423.00
2023-04-10T00:54:57.271Z,98423.00
2023-04-10T00:55:07.306Z,98423.00
2023-04-10T00:55:17.299Z,98425.00
2023-04-10T00:55:27.299Z,98423.00
2023-04-10T00:55:37.308Z,98423.00
2023-04-10T00:55:47.358Z,98419.00
2023-04-10T00:55:57.364Z,98419.00
2023-04-10T00:56:07.341Z,98417.00
2023-04-10T00:56:17.342Z,98421.00
2023-04-10T00:56:27.348Z,98423.00
2023-04-10T00:56:37.352Z,98423.00
2023-04-10T00:56:47.367Z,98425.00
2023-04-10T00:56:57.744Z,98425.00
2023-04-10T00:57:07.755Z,98421.00
2023-04-10T00:57:17.757Z,98425.00
2023-04-10T00:57:27.758Z,98421.00
2023-04-10T00:57:37.784Z,98425.00
2023-04-10T00:57:47.777Z,98423.00
2023-04-10T00:57:57.793Z,98423.00
2023-04-10T00:58:07.804Z,98423.00
2023-04-10T00:58:17.926Z,98425.00
2023-04-10T00:58:27.928Z,98421.00
2023-04-10T00:58:38.203Z,98423.00
2023-04-10T00:58:48.205Z,98423.00
2023-04-10T00:58:58.217Z,98425.00
2023-04-10T00:59:08.221Z,98425.00
2023-04-10T00:59:18.272Z,98423.00
2023-04-10T00:59:28.270Z,98421.00
2023-04-10T00:59:38.414Z,98423.00
2023-04-10T00:59:48.426Z,98425.00
2023-04-10T00:59:58.432Z,98425.00
2023-04-10T01:00:08.434Z,98425.00
2023-04-10T01:00:18.702Z,98425.00
2023-04-10T01:00:28.711Z,98427.00
2023-04-10T01:00:38.724Z,98427.00
2023-04-10T01:00:48.728Z,98425.00
2023-04-10T01:00:58.769Z,98423.00
2023-04-10T01:01:08.891Z,98423.00
2023-04-10T01:01:18.849Z,98427.00
2023-04-10T01:01:28.875Z,98423.00
2023-04-10T01:01:38.968Z,98425.00
2023-04-10T01:01:49.057Z,98425.00
2023-04-10T01:01:59.065Z,98425.00
2023-04-10T01:02:08.939Z,98425.00
2023-04-10T01:02:19.120Z,98423.00
2023-04-10T01:02:29.112Z,98423.00
2023-04-10T01:02:39.290Z,98423.00
2023-04-10T01:02:49.326Z,98423.00
2023-04-10T01:02:59.429Z,98423.00
2023-04-10T01:03:09.388Z,98423.00
2023-04-10T01:03:19.686Z,98423.00
2023-04-10T01:03:29.769Z,98423.00
2023-04-10T01:03:39.782Z,98425.00
2023-04-10T01:03:50.042Z,98423.00
2023-04-10T01:04:00.402Z,98425.00
2023-04-10T01:04:10.238Z,98423.00
2023-04-10T01:04:20.568Z,98421.00
2023-04-10T01:04:30.789Z,98423.00
2023-04-10T01:04:40.601Z,98421.00
2023-04-10T01:04:50.857Z,98425.00
2023-04-10T01:05:00.876Z,98423.00
2023-04-10T01:05:10.876Z,98421.00
2023-04-10T01:05:20.896Z,98419.00
2023-04-10T01:05:30.902Z,98425.00
2023-04-10T01:05:40.981Z,98421.00
2023-04-10T01:05:50.990Z,98421.00
2023-04-10T01:06:00.998Z,98423.00
2023-04-10T01:06:11.018Z,98421.00
2023-04-10T01:06:21.013Z,98423.00
2023-04-10T01:06:31.061Z,98423.00
2023-04-10T01:06:41.070Z,98421.00
2023-04-10T01:06:51.074Z,98419.00
2023-04-10T01:07:01.095Z,98421.00
2023-04-10T01:07:11.110Z,98419.00
2023-04-10T01:07:21.107Z,98419.00
2023-04-10T01:07:31.110Z,98421.00
2023-04-10T01:07:41.126Z,98421.00
2023-04-10T01:07:51.137Z,98419.00
2023-04-10T01:08:01.139Z,98421.00
2023-04-10T01:08:11.150Z,98419.00
2023-04-10T01:08:21.168Z,98419.00
2023-04-10T01:08:31.195Z,98421.00
2023-04-10T01:08:41.225Z,98421.00
2023-04-10T01:08:51.234Z,98421.00
2023-04-10T01:09:01.243Z,98419.00
2023-04-10T01:09:11.251Z,98419.00
2023-04-10T01:09:21.263Z,98421.00
2023-04-10T01:09:31.269Z,98419.00
2023-04-10T01:09:41.289Z,98419.00
2023-04-10T01:09:51.291Z,98419.00
2023-04-10T01:10:01.314Z,98419.00
2023-04-10T01:10:11.308Z,98421.00
2023-04-10T01:10:21.322Z,98421.00
2023-04-10T01:10:31.328Z,98421.00
2023-04-10T01:10:41.339Z,98419.00
2023-04-10T01:10:51.357Z,98419.00
2023-04-10T01:11:01.358Z,98419.00
2023-04-10T01:11:11.409Z,98417.00
2023-04-10T01:11:21.409Z,98417.00
2023-04-10T01:11:31.419Z,98419.00
2023-04-10T01:11:41.414Z,98417.00
2023-04-10T01:11:51.546Z,98419.00
2023-04-10T01:12:01.552Z,98419.00
2023-04-10T01:12:11.550Z,98421.00
2023-04-10T01:12:21.809Z,98419.00
2023-04-10T01:12:31.828Z,98419.00
2023-04-10T01:12:41.813Z,98419.00
2023-04-10T01:12:52.193Z,98419.00
2023-04-10T01:13:02.191Z,98421.00
2023-04-10T01:13:12.319Z,98421.00
2023-04-10T01:13:22.575Z,98421.00
2023-04-10T01:13:32.576Z,98421.00
2023-04-10T01:13:42.576Z,98417.00
2023-04-10T01:13:53.126Z,98421.00
2023-04-10T01:14:03.006Z,98421.00
2023-04-10T01:14:13.005Z,98421.00
2023-04-10T01:14:23.019Z,98421.00
2023-04-10T01:14:33.039Z,98419.00
2023-04-10T01:14:43.034Z,98419.00
2023-04-10T01:14:53.045Z,98421.00
2023-04-10T01:15:03.062Z,98419.00
2023-04-10T01:15:13.098Z,98419.00
2023-04-10T01:15:23.079Z,98421.00
2023-04-10T01:15:33.086Z,98419.00
2023-04-10T01:15:43.112Z,98419.00
2023-04-10T01:15:53.106Z,98419.00
2023-04-10T01:16:03.116Z,98421.00
2023-04-10T01:16:13.147Z,98423.00
2023-04-10T01:16:23.169Z,98419.00
2023-04-10T01:16:33.216Z,98419.00
2023-04-10T01:16:43.249Z,98421.00
2023-04-10T01:16:53.399Z,98421.00
2023-04-10T01:17:03.458Z,98421.00
2023-04-10T01:17:13.331Z,98421.00
2023-04-10T01:17:23.386Z,98419.00
2023-04-10T01:17:33.463Z,98419.00
2023-04-10T01:17:43.578Z,98419.00
2023-04-10T01:17:53.888Z,98421.00
2023-04-10T01:18:03.936Z,98419.00
2023-04-10T01:18:13.967Z,98419.00
2023-04-10T01:18:23.963Z,98419.00
2023-04-10T01:18:33.979Z,98419.00
2023-04-10T01:18:43.983Z,98417.00
2023-04-10T01:18:53.990Z,98419.00
2023-04-10T01:19:04.088Z,98419.00
2023-04-10T01:19:14.126Z,98419.00
2023-04-10T01:19:24.116Z,98419.00
2023-04-10T01:19:34.386Z,98417.00
2023-04-10T01:19:44.399Z,98419.00
2023-04-10T01:19:54.519Z,98417.00
2023-04-10T01:20:04.799Z,98417.00
2023-04-10T01:20:14.787Z,98417.00
2023-04-10T01:20:24.789Z,98417.00
2023-04-10T01:20:34.817Z,98417.00
2023-04-10T01:20:44.830Z,98417.00
2023-04-10T01:20:54.844Z,98417.00
2023-04-10T01:21:04.856Z,98417.00
2023-04-10T01:21:14.874Z,98421.00
2023-04-10T01:21:24.874Z,98419.00
2023-04-10T01:21:34.996Z,98415.00
2023-04-10T01:21:45.256Z,98415.00
2023-04-10T01:21:55.267Z,98415.00
2023-04-10T01:22:05.283Z,98417.00
2023-04-10T01:22:15.291Z,98419.00
2023-04-10T01:22:25.294Z,98419.00
2023-04-10T01:22:35.341Z,98417.00
2023-04-10T01:22:45.409Z,98419.00
2023-04-10T01:22:55.461Z,98419.00
2023-04-10T01:23:05.442Z,98417.00
2023-04-10T01:23:15.440Z,98419.00
2023-04-10T01:23:25.721Z,98419.00
2023-04-10T01:23:35.832Z,98421.00
2023-04-10T01:23:45.836Z,98419.00
2023-04-10T01:23:56.365Z,98419.00
2023-04-10T01:24:06.171Z,98421.00
2023-04-10T01:24:16.186Z,98419.00
2023-04-10T01:24:26.181Z,98421.00
2023-04-10T01:24:36.174Z,98419.00
2023-04-10T01:24:46.181Z,98419.00
2023-04-10T01:24:56.308Z,98419.00
2023-04-10T01:25:06.307Z,98421.00
2023-04-10T01:25:16.318Z,98421.00
2023-04-10T01:25:26.321Z,98419.00
2023-04-10T01:25:36.582Z,98421.00
2023-04-10T01:25:46.573Z,98419.00
2023-04-10T01:25:56.707Z,98421.00
2023-04-10T01:26:06.993Z,98423.00
2023-04-10T01:26:16.987Z,98421.00
2023-04-10T01:26:26.989Z,98421.00
2023-04-10T01:26:37.000Z,98421.00
2023-04-10T01:26:47.001Z,98423.00
2023-04-10T01:26:57.120Z,98421.00
2023-04-10T01:27:07.122Z,98417.00
2023-04-10T01:27:17.132Z,98419.00
2023-04-10T01:27:27.141Z,98419.00
2023-04-10T01:27:37.166Z,98421.00
2023-04-10T01:27:47.411Z,98417.00
2023-04-10T01:27:57.428Z,98419.00
2023-04-10T01:28:07.427Z,98421.00
2023-04-10T01:28:17.442Z,98421.00
2023-04-10T01:28:27.469Z,98421.00
2023-04-10T01:28:37.494Z,98417.00
2023-04-10T01:28:47.522Z,98419.00
2023-04-10T01:28:57.591Z,98421.00
2023-04-10T01:29:07.588Z,98421.00
2023-04-10T01:29:17.605Z,98421.00
2023-04-10T01:29:27.608Z,98421.00
2023-04-10T01:29:37.654Z,98419.00
2023-04-10T01:29:47.697Z,98421.00
2023-04-10T01:29:57.711Z,98421.00
2023-04-10T01:30:07.722Z,98423.00
2023-04-10T01:30:17.840Z,98423.00
2023-04-10T01:30:27.843Z,98423.00
2023-04-10T01:30:38.143Z,98419.00
2023-04-10T01:30:48.185Z,98419.00
2023-04-10T01:30:58.225Z,98419.00
2023-04-10T01:31:08.316Z,98419.00
2023-04-10T01:31:18.437Z,98423.00
2023-04-10T01:31:28.414Z,98423.00
2023-04-10T01:31:38.423Z,98421.00
2023-04-10T01:31:48.428Z,98421.00
2023-04-10T01:31:58.594Z,98423.00
2023-04-10T01:32:08.611Z,98421.00
2023-04-10T01:32:18.866Z,98423.00
2023-04-10T01:32:28.942Z,98423.00
2023-04-10T01:32:38.950Z,98423.00
2023-04-10T01:32:48.992Z,98421.00
2023-04-10T01:32:59.069Z,98425.00
2023-04-10T01:33:09.028Z,98421.00
2023-04-10T01:33:19.022Z,98421.00
2023-04-10T01:33:29.028Z,98421.00
2023-04-10T01:33:39.035Z,98421.00
2023-04-10T01:33:49.037Z,98421.00
2023-04-10T01:33:59.451Z,98423.00
2023-04-10T01:34:09.597Z,98421.00
2023-04-10T01:34:19.575Z,98423.00
2023-04-10T01:34:29.642Z,98421.00
2023-04-10T01:34:39.691Z,98421.00
2023-04-10T01:34:49.703Z,98421.00
2023-04-10T01:34:59.822Z,98423.00
2023-04-10T01:35:09.834Z,98423.00
2023-04-10T01:35:19.825Z,98423.00
2023-04-10T01:35:29.848Z,98421.00
2023-04-10T01:35:40.158Z,98421.00
2023-04-10T01:35:50.270Z,98421.00
2023-04-10T01:36:00.273Z,98421.00
2023-04-10T01:36:10.353Z,98423.00
2023-04-10T01:36:20.377Z,98417.00
2023-04-10T01:36:30.379Z,98417.00
2023-04-10T01:36:40.522Z,98423.00
2023-04-10T01:36:50.518Z,98419.00
2023-04-10T01:37:00.518Z,98417.00
2023-04-10T01:37:10.521Z,98419.00
2023-04-10T01:37:20.784Z,98419.00
2023-04-10T01:37:30.785Z,98419.00
2023-04-10T01:37:40.814Z,98417.00
2023-04-10T01:37:50.807Z,98419.00
2023-04-10T01:38:00.823Z,98419.00
2023-04-10T01:38:10.822Z,98419.00
2023-04-10T01:38:20.952Z,98421.00
2023-04-10T01:38:30.951Z,98419.00
2023-04-10T01:38:40.955Z,98421.00
2023-04-10T01:38:50.969Z,98421.00
2023-04-10T01:39:01.249Z,98421.00
2023-04-10T01:39:11.246Z,98421.00
2023-04-10T01:39:21.255Z,98419.00
2023-04-10T01:39:31.263Z,98419.00
2023-04-10T01:39:41.277Z,98421.00
2023-04-10T01:39:51.285Z,98421.00
2023-04-10T01:40:01.461Z,98423.00
2023-04-10T01:40:11.486Z,98423.00
2023-04-10T01:40:21.491Z,98421.00
2023-04-10T01:40:31.501Z,98423.00
2023-04-10T01:40:41.756Z,98423.00
2023-04-10T01:40:51.754Z,98419.00
2023-04-10T01:41:01.813Z,98423.00
2023-04-10T01:41:11.801Z,98425.00
2023-04-10T01:41:21.811Z,98427.00
2023-04-10T01:41:31.820Z,98423.00
2023-04-10T01:41:41.816Z,98425.00
2023-04-10T01:41:51.820Z,98421.00
2023-04-10T01:42:01.996Z,98425.00
2023-04-10T01:42:12.032Z,98421.00
2023-04-10T01:42:22.277Z,98421.00
2023-04-10T01:42:32.288Z,98421.00
2023-04-10T01:42:44.363Z,98423.00
2023-04-10T01:42:52.451Z,98423.00
2023-04-10T01:43:02.589Z,98423.00
2023-04-10T01:43:12.707Z,98423.00
2023-04-10T01:43:22.846Z,98423.00
2023-04-10T01:43:32.855Z,98425.00
2023-04-10T01:43:43.102Z,98425.00
2023-04-10T01:43:53.328Z,98425.00
2023-04-10T01:44:03.127Z,98423.00
2023-04-10T01:44:13.128Z,98425.00
2023-04-10T01:44:23.139Z,98423.00
2023-04-10T01:44:33.141Z,98421.00
2023-04-10T01:44:43.160Z,98423.00
2023-04-10T01:44:53.160Z,98425.00
2023-04-10T01:45:03.282Z,98421.00
2023-04-10T01:45:13.287Z,98421.00
2023-04-10T01:45:23.546Z,98423.00
2023-04-10T01:45:33.557Z,98423.00
2023-04-10T01:45:43.543Z,98421.00
2023-04-10T01:45:53.620Z,98423.00
2023-04-10T01:46:03.641Z,98421.00
2023-04-10T01:46:13.718Z,98421.00
2023-04-10T01:46:23.792Z,98423.00
2023-04-10T01:46:33.849Z,98423.00
2023-04-10T01:46:44.007Z,98421.00
2023-04-10T01:46:53.927Z,98421.00
2023-04-10T01:47:04.187Z,98423.00
2023-04-10T01:47:14.201Z,98423.00
2023-04-10T01:47:24.227Z,98423.00
2023-04-10T01:47:34.323Z,98423.00
2023-04-10T01:47:44.384Z,98423.00
2023-04-10T01:47:54.409Z,98423.00
2023-04-10T01:48:04.442Z,98421.00
2023-04-10T01:48:14.459Z,98425.00
2023-04-10T01:48:24.442Z,98423.00
2023-04-10T01:48:34.451Z,98423.00
2023-04-10T01:48:44.463Z,98425.00
2023-04-10T01:48:54.465Z,98423.00
2023-04-10T01:49:04.470Z,98423.00
2023-04-10T01:49:14.487Z,98423.00
2023-04-10T01:49:24.499Z,98423.00
2023-04-10T01:49:34.511Z,98425.00
2023-04-10T01:49:44.572Z,98425.00
2023-04-10T01:49:54.599Z,98421.00
2023-04-10T01:50:04.607Z,98425.00
2023-04-10T01:50:14.599Z,98425.00
2023-04-10T01:50:24.611Z,98425.00
2023-04-10T01:50:34.621Z,98423.00
2023-04-10T01:50:44.617Z,98423.00
2023-04-10T01:50:54.629Z,98425.00
2023-04-10T01:51:04.634Z,98425.00
2023-04-10T01:51:14.632Z,98423.00
2023-04-10T01:51:24.643Z,98427.00
2023-04-10T01:51:34.658Z,98425.00
2023-04-10T01:51:44.663Z,98425.00
2023-04-10T01:51:54.677Z,98425.00
2023-04-10T01:52:04.667Z,98425.00
2023-04-10T01:52:14.703Z,98425.00
2023-04-10T01:52:24.720Z,98427.00
2023-04-10T01:52:34.720Z,98427.00
2023-04-10T01:52:44.723Z,98425.00
2023-04-10T01:52:54.746Z,98429.00
2023-04-10T01:53:04.742Z,98429.00
2023-04-10T01:53:14.750Z,98427.00
2023-04-10T01:53:24.761Z,98427.00
2023-04-10T01:53:34.776Z,98427.00
2023-04-10T01:53:44.786Z,98429.00
2023-04-10T01:53:54.996Z,98429.00
2023-04-10T01:54:06.902Z,98429.00
2023-04-10T01:54:14.837Z,98429.00
2023-04-10T01:54:24.840Z,98427.00
2023-04-10T01:54:34.839Z,98427.00
2023-04-10T01:54:44.844Z,98427.00
2023-04-10T01:54:54.976Z,98429.00
2023-04-10T01:55:04.972Z,98429.00
2023-04-10T01:55:14.974Z,98427.00
2023-04-10T01:55:24.992Z,98431.00
2023-04-10T01:55:35.001Z,98429.00
2023-04-10T01:55:45.293Z,98427.00
2023-04-10T01:55:55.277Z,98431.00
2023-04-10T01:56:05.296Z,98431.00
2023-04-10T01:56:15.306Z,98427.00
2023-04-10T01:56:25.331Z,98429.00
2023-04-10T01:56:35.457Z,98429.00
2023-04-10T01:56:45.456Z,98427.00
2023-04-10T01:56:55.469Z,98427.00
2023-04-10T01:57:05.473Z,98425.00
2023-04-10T01:57:15.493Z,98427.00
2023-04-10T01:57:25.752Z,98427.00
2023-04-10T01:57:35.750Z,98427.00
2023-04-10T01:57:45.756Z,98425.00
2023-04-10T01:57:55.755Z,98427.00
2023-04-10T01:58:05.760Z,98427.00